Time;durP1;ratioP1;P1;durP2;ratioP2;P2;SDS_P1;SDS_P2;PMS_P1;PMS_P2;Temp;Humidity;BMP_temperature;BMP_pressure;BME280_temperature;BME280_humidity;BME280_pressure;Samples;Min_cycle;Max_cycle;Signal;HPM_P1;HPM_P2
2022/04/03 00:01:31;;;;;;;13.77;12.57;;;;;;;2.60;88.00;98795.06;4981509;28;104182;-65
2022/04/03 00:03:59;;;;;;;11.93;10.90;;;;;;;2.78;89.24;98799.53;4975880;28;103334;-65
2022/04/03 00:06:28;;;;;;;12.00;10.90;;;;;;;2.90;87.94;98803.41;4983669;28;102894;-64
2022/04/03 00:08:57;;;;;;;11.50;10.52;;;;;;;2.99;88.14;98802.22;4979097;28;102616;-65
2022/04/03 00:11:28;;;;;;;10.38;9.57;;;;;;;3.13;86.93;98810.31;4988667;28;104135;-64
2022/04/03 00:13:56;;;;;;;10.57;9.77;;;;;;;3.13;86.74;98799.88;4967602;28;103183;-63
2022/04/03 00:16:24;;;;;;;11.43;10.52;;;;;;;3.07;86.21;98807.97;4982283;28;102663;-61
2022/04/03 00:18:52;;;;;;;10.40;9.50;;;;;;;3.08;86.25;98797.47;4982516;28;103975;-62
2022/04/03 00:21:20;;;;;;;10.15;9.30;;;;;;;3.13;86.39;98805.09;4973418;28;103492;-61
2022/04/03 00:23:50;;;;;;;9.90;9.10;;;;;;;3.20;86.46;98799.56;4984469;28;103217;-62
2022/04/03 00:26:18;;;;;;;12.63;11.63;;;;;;;3.02;85.74;98797.72;4980265;28;102625;-62
2022/04/03 00:28:46;;;;;;;10.73;9.82;;;;;;;3.21;86.49;98801.28;4981912;28;104102;-62
2022/04/03 00:31:14;;;;;;;11.82;10.65;;;;;;;3.19;85.10;98810.09;4985910;28;103807;-62
2022/04/03 00:33:43;;;;;;;11.30;10.40;;;;;;;3.29;85.24;98804.41;4979710;28;103304;-62
2022/04/03 00:36:11;;;;;;;10.35;9.50;;;;;;;3.28;85.50;98809.72;4982476;28;102651;-62
2022/04/03 00:38:39;;;;;;;10.13;9.33;;;;;;;3.30;85.01;98813.09;4983352;28;103597;-62
2022/04/03 00:41:10;;;;;;;10.77;9.88;;;;;;;3.23;85.19;98811.66;4987561;28;104376;-62
2022/04/03 00:43:39;;;;;;;11.48;10.50;;;;;;;3.22;84.65;98807.34;4967270;28;103255;-62
2022/04/03 00:46:08;;;;;;;11.13;10.23;;;;;;;3.26;85.08;98806.28;4991037;28;102709;-62
2022/04/03 00:48:37;;;;;;;10.87;9.97;;;;;;;3.26;84.82;98809.75;4984334;28;102859;-62
2022/04/03 00:51:06;;;;;;;9.85;9.07;;;;;;;3.30;85.32;98816.56;4981582;28;103307;-61
2022/04/03 00:53:34;;;;;;;10.60;9.70;;;;;;;3.33;84.63;98812.97;4974109;28;103714;-62
2022/04/03 00:56:02;;;;;;;10.80;9.95;;;;;;;3.29;83.90;98814.00;4963437;28;102642;-62
2022/04/03 00:58:33;;;;;;;9.50;8.70;;;;;;;3.30;84.30;98813.97;4959126;28;103652;-62
2022/04/03 01:01:01;;;;;;;12.70;11.55;;;;;;;2.98;84.35;98810.94;4977996;28;103298;-61
2022/04/03 01:03:29;;;;;;;11.03;10.13;;;;;;;3.08;85.71;98809.66;4978722;28;103293;-62
2022/04/03 01:05:57;;;;;;;10.93;10.02;;;;;;;3.06;85.97;98811.50;4982831;28;103158;-63
2022/04/03 01:08:25;;;;;;;10.68;9.88;;;;;;;3.02;87.14;98810.78;4977291;28;104422;-62
2022/04/03 01:10:53;;;;;;;11.20;10.20;;;;;;;3.15;86.36;98818.94;4977441;28;103240;-63
2022/04/03 01:13:22;;;;;;;13.18;12.13;;;;;;;2.68;86.93;98816.47;4989278;28;103273;-64
2022/04/03 01:15:57;;;;;;;10.63;9.75;;;;;;;3.04;87.37;98810.69;4989056;28;102587;-63
2022/04/03 01:18:25;;;;;;;11.77;10.57;;;;;;;3.16;86.73;98816.28;4982691;28;102999;-63
2022/04/03 01:20:53;;;;;;;12.63;11.43;;;;;;;2.97;86.32;98814.47;4980097;28;103609;-64
2022/04/03 01:23:23;;;;;;;10.00;9.20;;;;;;;3.18;86.80;98821.44;4992870;28;103350;-63
2022/04/03 01:25:53;;;;;;;10.67;9.77;;;;;;;3.21;86.06;98818.69;4976171;28;102809;-63
2022/04/03 01:28:24;;;;;;;10.15;9.35;;;;;;;3.26;85.71;98807.16;4978179;28;103954;-63
2022/04/03 01:30:52;;;;;;;9.60;8.80;;;;;;;3.29;85.41;98821.84;4983699;28;104023;-62
2022/04/03 01:33:20;;;;;;;12.82;11.63;;;;;;;2.85;85.79;98815.81;4977185;28;103229;-63
2022/04/03 01:35:48;;;;;;;10.98;10.02;;;;;;;3.03;86.04;98822.06;4962438;28;102848;-63
2022/04/03 01:38:17;;;;;;;11.02;10.02;;;;;;;3.07;86.64;98819.25;4993433;28;102643;-64
2022/04/03 01:40:46;;;;;;;11.50;10.45;;;;;;;2.98;86.19;98822.22;4990317;28;103271;-63
2022/04/03 01:43:19;;;;;;;10.60;9.68;;;;;;;3.10;86.62;98832.19;4983090;28;103452;-64
2022/04/03 01:45:47;;;;;;;10.03;9.23;;;;;;;3.24;85.79;98823.78;4961942;28;102915;-63
2022/04/03 01:48:15;;;;;;;10.30;9.40;;;;;;;3.29;84.57;98827.06;4975458;28;102649;-64
2022/04/03 01:50:44;;;;;;;11.40;10.50;;;;;;;3.24;84.46;98818.56;4980353;28;104179;-62
2022/04/03 01:53:12;;;;;;;10.43;9.53;;;;;;;3.23;85.92;98824.72;4986441;28;103223;-63
2022/04/03 01:55:40;;;;;;;9.65;8.90;;;;;;;3.35;85.25;98824.19;4982986;28;102630;-62
2022/04/03 01:58:11;;;;;;;10.88;10.05;;;;;;;3.21;85.81;98824.78;4977105;28;102673;-62
2022/04/03 02:00:40;;;;;;;11.03;10.10;;;;;;;3.21;86.71;98826.53;4981460;28;103202;-62
2022/04/03 02:03:09;;;;;;;10.73;9.87;;;;;;;3.04;86.67;98823.75;4962874;28;103258;-63
2022/04/03 02:05:38;;;;;;;10.80;9.90;;;;;;;3.21;85.00;98834.38;4959723;28;102779;-63
2022/04/03 02:08:07;;;;;;;11.95;10.95;;;;;;;3.26;83.73;98825.44;4981782;28;102710;-64
2022/04/03 02:10:38;;;;;;;12.77;11.77;;;;;;;2.98;86.17;98826.59;4986930;28;103754;-64
2022/04/03 02:13:06;;;;;;;12.00;11.00;;;;;;;3.19;86.06;98836.19;4973955;28;103229;-62
2022/04/03 02:15:35;;;;;;;12.13;11.02;;;;;;;3.30;84.67;98826.16;4962129;28;102748;-62
2022/04/03 02:18:04;;;;;;;11.98;10.93;;;;;;;3.28;84.85;98830.59;4975692;28;102597;-62
2022/04/03 02:20:32;;;;;;;10.05;9.25;;;;;;;3.34;84.21;98831.19;4976243;28;104033;-61
2022/04/03 02:23:03;;;;;;;13.27;12.07;;;;;;;3.13;84.51;98833.81;4986224;28;102942;-62
2022/04/03 02:25:31;;;;;;;11.73;10.75;;;;;;;3.28;85.57;98831.47;4976781;28;102895;-63
2022/04/03 02:28:00;;;;;;;12.70;11.60;;;;;;;3.25;85.12;98831.59;4983978;28;104176;-62
2022/04/03 02:30:28;;;;;;;11.90;11.00;;;;;;;3.21;86.18;98839.59;4956763;28;103286;-62
2022/04/03 02:32:56;;;;;;;11.23;10.30;;;;;;;3.27;86.07;98834.97;4981339;28;102978;-63
2022/04/03 02:35:26;;;;;;;11.95;11.05;;;;;;;3.42;85.62;98838.72;4958662;28;102635;-62
2022/04/03 02:37:54;;;;;;;14.68;13.27;;;;;;;3.13;85.69;98833.81;4980565;28;102880;-63
2022/04/03 02:40:24;;;;;;;14.82;13.55;;;;;;;2.88;88.48;98841.78;4972013;28;104765;-61
2022/04/03 02:42:52;;;;;;;13.05;12.05;;;;;;;3.07;86.90;98836.69;4971937;28;104314;-63
2022/04/03 02:45:23;;;;;;;13.75;12.45;;;;;;;3.13;85.07;98836.44;4967326;28;102997;-63
2022/04/03 02:47:53;;;;;;;12.02;11.02;;;;;;;3.21;85.10;98843.06;4981207;28;103000;-63
2022/04/03 02:50:22;;;;;;;13.27;12.17;;;;;;;3.09;85.48;98840.09;4978219;28;103845;-63
2022/04/03 02:52:54;;;;;;;14.20;13.02;;;;;;;3.14;85.19;98838.16;4976288;28;103484;-63
2022/04/03 02:55:24;;;;;;;11.70;10.80;;;;;;;3.19;86.48;98849.25;4976913;28;102718;-64
2022/04/03 02:57:53;;;;;;;11.98;11.07;;;;;;;3.26;85.61;98848.06;4986714;28;103612;-64
2022/04/03 03:00:21;;;;;;;11.32;10.43;;;;;;;3.24;86.18;98844.69;4992302;28;103226;-65
2022/04/03 03:02:51;;;;;;;12.90;11.80;;;;;;;3.31;85.76;98851.38;4981402;28;103409;-65
2022/04/03 03:05:19;;;;;;;14.52;13.23;;;;;;;3.13;85.09;98842.50;4981665;28;102512;-64
2022/04/03 03:07:48;;;;;;;11.00;10.10;;;;;;;3.35;86.12;98848.56;4980988;28;103597;-63
2022/04/03 03:10:22;;;;;;;13.65;12.63;;;;;;;3.33;85.17;98847.78;4966031;28;103990;-64
2022/04/03 03:12:50;;;;;;;12.98;11.88;;;;;;;3.05;85.83;98844.59;4978674;28;103177;-64
2022/04/03 03:15:18;;;;;;;12.47;11.47;;;;;;;3.19;85.72;98846.63;4982138;28;102913;-63
2022/04/03 03:17:49;;;;;;;11.60;10.70;;;;;;;3.26;85.62;98842.84;4965450;28;102947;-62
2022/04/03 03:20:21;;;;;;;12.68;11.57;;;;;;;3.16;84.10;98836.31;4956846;28;104242;-62
2022/04/03 03:22:49;;;;;;;10.77;9.98;;;;;;;3.33;84.29;98839.94;4985378;28;103284;-63
2022/04/03 03:25:21;;;;;;;12.52;11.45;;;;;;;3.13;83.73;98841.66;4978910;28;102914;-63
2022/04/03 03:27:49;;;;;;;10.80;9.93;;;;;;;3.28;84.41;98846.28;4978505;28;103742;-65
2022/04/03 03:30:18;;;;;;;10.13;9.32;;;;;;;3.40;83.01;98850.97;4981064;28;104653;-62
2022/04/03 03:32:46;;;;;;;11.45;10.55;;;;;;;3.28;83.01;98851.50;4981556;28;103197;-63
2022/04/03 03:35:14;;;;;;;12.07;11.07;;;;;;;3.20;83.12;98851.78;4959259;28;102891;-65
2022/04/03 03:37:44;;;;;;;11.02;10.13;;;;;;;3.18;82.89;98851.00;4972729;28;103085;-65
2022/04/03 03:40:14;;;;;;;10.50;9.70;;;;;;;3.24;83.26;98849.91;4984393;28;103757;-64
2022/04/03 03:42:44;;;;;;;13.63;12.43;;;;;;;2.55;84.15;98854.38;4957862;28;103029;-65
2022/04/03 03:45:14;;;;;;;12.43;11.35;;;;;;;2.90;84.36;98856.47;4954713;28;102776;-64
2022/04/03 03:47:45;;;;;;;13.77;12.50;;;;;;;2.74;84.28;98850.16;4955918;28;103612;-65
2022/04/03 03:50:14;;;;;;;13.07;11.90;;;;;;;2.31;85.80;98857.88;4936771;28;104210;-64
2022/04/03 03:52:43;;;;;;;14.02;12.82;;;;;;;2.03;87.94;98863.22;4957151;28;103040;-65
2022/04/03 03:55:11;;;;;;;14.68;13.38;;;;;;;1.82;88.60;98865.75;4956267;28;102856;-64
2022/04/03 03:57:39;;;;;;;14.30;13.10;;;;;;;2.28;88.09;98860.59;4952502;28;103171;-63
2022/04/03 04:00:12;;;;;;;13.35;12.25;;;;;;;2.46;87.19;98872.97;4951287;28;104298;-64
2022/04/03 04:02:40;;;;;;;13.38;12.18;;;;;;;2.29;86.43;98865.75;4956237;28;103199;-64
2022/04/03 04:05:10;;;;;;;13.65;12.45;;;;;;;2.11;87.72;98873.38;4955706;28;103336;-64
2022/04/03 04:07:42;;;;;;;12.25;11.18;;;;;;;2.46;86.45;98862.53;4937202;28;104174;-65
2022/04/03 04:10:12;;;;;;;13.10;11.95;;;;;;;2.37;85.30;98870.69;4956387;28;103277;-64
2022/04/03 04:12:40;;;;;;;13.45;12.25;;;;;;;2.27;86.83;98871.94;4937235;28;104153;-63
2022/04/03 04:15:12;;;;;;;10.85;9.93;;;;;;;2.45;85.93;98875.63;4955413;28;102879;-63
2022/04/03 04:17:42;;;;;;;11.93;10.80;;;;;;;2.18;86.38;98872.28;4952739;28;102656;-65
2022/04/03 04:20:12;;;;;;;12.00;10.90;;;;;;;2.21;87.28;98882.59;4954182;28;104173;-63
2022/04/03 04:22:41;;;;;;;11.47;10.47;;;;;;;2.22;85.71;98876.44;4953597;28;103244;-62
2022/04/03 04:25:14;;;;;;;11.30;10.20;;;;;;;2.40;86.27;98886.22;4957099;28;102912;-63
2022/04/03 04:27:43;;;;;;;11.82;10.73;;;;;;;2.22;86.72;98882.53;4951351;28;102911;-62
2022/04/03 04:30:14;;;;;;;12.10;10.90;;;;;;;2.22;86.88;98887.72;4954212;28;104127;-62
2022/04/03 04:32:42;;;;;;;12.55;11.45;;;;;;;1.77;86.86;98894.53;4946262;28;103180;-62
2022/04/03 04:35:11;;;;;;;11.05;10.15;;;;;;;2.13;88.14;98888.06;4954707;28;102718;-62
2022/04/03 04:37:42;;;;;;;12.45;11.35;;;;;;;2.13;86.77;98900.25;4953273;28;102621;-63
2022/04/03 04:40:11;;;;;;;11.57;10.50;;;;;;;1.93;86.44;98900.97;4932134;28;103774;-63
2022/04/03 04:42:41;;;;;;;12.77;11.57;;;;;;;1.26;89.80;98901.47;4954334;28;104446;-63
2022/04/03 04:45:10;;;;;;;11.70;10.70;;;;;;;1.32;90.88;98896.09;4930752;28;102815;-63
2022/04/03 04:47:48;;;;;;;11.88;10.75;;;;;;;1.86;89.50;98899.44;4948741;28;102768;-62
2022/04/03 04:50:18;;;;;;;11.48;10.43;;;;;;;2.03;87.74;98902.31;4953100;28;103240;-62
2022/04/03 04:52:46;;;;;;;11.67;10.57;;;;;;;1.98;87.66;98903.41;4954502;28;103202;-63
2022/04/03 04:55:14;;;;;;;11.32;10.20;;;;;;;2.03;88.11;98914.50;4955011;28;102578;-62
2022/04/03 04:57:56;;;;;;;11.23;10.23;;;;;;;1.64;88.51;98909.75;4953265;28;104234;-63
2022/04/03 05:00:26;;;;;;;11.02;10.02;;;;;;;1.71;89.18;98911.22;4951802;28;103572;-62
2022/04/03 05:02:56;;;;;;;11.57;10.57;;;;;;;1.63;88.87;98917.59;4954460;28;103238;-63
2022/04/03 05:05:24;;;;;;;11.40;10.38;;;;;;;1.82;89.38;98918.72;4948697;28;102617;-63
2022/04/03 05:07:55;;;;;;;11.32;10.32;;;;;;;1.83;88.60;98924.75;4956065;28;102677;-63
2022/04/03 05:10:27;;;;;;;11.13;10.13;;;;;;;1.58;87.63;98915.16;4952704;28;105058;-63
2022/04/03 05:12:56;;;;;;;11.50;10.40;;;;;;;1.49;89.27;98922.41;4938855;28;103239;-64
2022/04/03 05:15:24;;;;;;;10.50;9.55;;;;;;;1.71;89.80;98921.66;4957717;28;103832;-64
2022/04/03 05:17:53;;;;;;;11.45;10.45;;;;;;;1.58;89.38;98925.56;4957421;28;103417;-63
2022/04/03 05:20:22;;;;;;;11.27;10.15;;;;;;;1.47;89.01;98926.81;4957803;28;103439;-64
2022/04/03 05:22:50;;;;;;;11.07;10.00;;;;;;;1.46;90.21;98933.78;4955452;28;103269;-63
2022/04/03 05:25:18;;;;;;;10.60;9.70;;;;;;;1.69;89.06;98939.09;4956798;28;102832;-63
2022/04/03 05:27:47;;;;;;;10.43;9.43;;;;;;;1.83;88.09;98942.97;4952364;28;103986;-64
2022/04/03 05:30:15;;;;;;;10.98;10.10;;;;;;;1.55;87.96;98943.03;4956913;28;105677;-64
2022/04/03 05:32:43;;;;;;;10.80;9.80;;;;;;;1.81;87.00;98944.78;4953141;28;103211;-63
2022/04/03 05:35:14;;;;;;;10.20;9.30;;;;;;;1.97;86.77;98944.22;4956767;28;104006;-63
2022/04/03 05:37:45;;;;;;;9.70;8.90;;;;;;;2.30;85.42;98947.44;4950682;28;102860;-63
2022/04/03 05:40:15;;;;;;;9.60;8.70;;;;;;;2.04;85.17;98947.50;4957230;28;103251;-63
2022/04/03 05:42:44;;;;;;;9.87;8.97;;;;;;;2.14;85.24;98941.03;4957463;28;103298;-63
2022/04/03 05:45:12;;;;;;;9.35;8.55;;;;;;;2.14;84.14;98946.25;4941104;28;102737;-63
2022/04/03 05:47:40;;;;;;;8.53;7.83;;;;;;;2.47;85.78;98944.25;4957349;28;102873;-63
2022/04/03 05:50:12;;;;;;;8.60;7.90;;;;;;;2.74;83.97;98951.91;4957321;28;104378;-64
2022/04/03 05:52:42;;;;;;;8.93;8.13;;;;;;;2.64;82.42;98953.13;4940051;28;104035;-64
2022/04/03 05:55:12;;;;;;;9.50;8.70;;;;;;;2.01;84.59;98950.19;4938545;28;103001;-63
2022/04/03 05:57:40;;;;;;;9.50;8.60;;;;;;;2.12;84.79;98958.50;4933731;28;102843;-64
2022/04/03 06:00:12;;;;;;;9.00;8.20;;;;;;;2.04;85.40;98958.78;4955871;28;103714;-62
2022/04/03 06:02:48;;;;;;;9.23;8.33;;;;;;;1.60;86.56;98968.03;4956264;28;103474;-61
2022/04/03 06:05:18;;;;;;;9.73;8.75;;;;;;;1.57;86.29;98962.91;4956694;28;103332;-61
2022/04/03 06:07:47;;;;;;;9.23;8.40;;;;;;;1.84;85.31;98968.16;4957379;28;104313;-62
2022/04/03 06:10:18;;;;;;;8.52;7.72;;;;;;;2.52;83.42;98971.84;4956422;28;103978;-62
2022/04/03 06:12:55;;;;;;;8.07;7.28;;;;;;;2.97;82.02;98971.06;4956954;28;103292;-62
2022/04/03 06:15:23;;;;;;;9.10;8.07;;;;;;;2.55;83.53;98976.97;4956627;28;102886;-62
2022/04/03 06:17:55;;;;;;;8.57;7.80;;;;;;;2.74;83.06;98972.78;4957900;28;104085;-62
2022/04/03 06:20:24;;;;;;;7.90;7.20;;;;;;;3.08;80.79;98976.75;4955387;28;103712;-63
2022/04/03 06:22:55;;;;;;;8.33;7.63;;;;;;;3.04;81.38;98978.63;4957640;28;103001;-62
2022/04/03 06:25:24;;;;;;;8.77;7.97;;;;;;;2.67;82.37;98978.25;4955726;28;102956;-63
2022/04/03 06:27:56;;;;;;;7.60;6.90;;;;;;;3.15;82.56;98983.41;4938518;28;103974;-62
2022/04/03 06:30:24;;;;;;;8.35;7.65;;;;;;;2.48;82.25;98992.88;4957236;28;104025;-62
2022/04/03 06:32:52;;;;;;;8.93;8.02;;;;;;;1.97;83.16;98985.06;4938948;28;104376;-62
2022/04/03 06:35:23;;;;;;;8.25;7.47;;;;;;;1.84;83.39;98999.41;4953335;28;102841;-62
2022/04/03 06:37:51;;;;;;;8.68;7.88;;;;;;;2.02;84.12;99004.84;4954486;28;103767;-63
2022/04/03 06:40:23;;;;;;;9.15;8.25;;;;;;;2.18;84.53;99005.22;4953775;28;103782;-62
2022/04/03 06:42:55;;;;;;;7.70;6.97;;;;;;;2.17;83.21;99003.50;4957545;28;103569;-63
2022/04/03 06:45:24;;;;;;;8.40;7.32;;;;;;;2.43;83.32;99000.88;4956296;28;102611;-63
2022/04/03 06:47:52;;;;;;;7.50;6.90;;;;;;;2.48;81.21;99004.16;4956996;28;103762;-62
2022/04/03 06:50:21;;;;;;;8.52;7.65;;;;;;;2.62;82.39;99011.50;4954398;28;104050;-62
2022/04/03 06:52:49;;;;;;;8.23;7.43;;;;;;;2.51;84.18;99009.28;4957073;28;103823;-63
2022/04/03 06:55:17;;;;;;;7.70;6.90;;;;;;;2.58;82.79;99017.75;4930487;28;102968;-63
2022/04/03 06:57:45;;;;;;;8.10;7.30;;;;;;;2.43;80.35;99016.50;4954711;28;103591;-63
2022/04/03 07:00:16;;;;;;;6.97;6.30;;;;;;;2.54;81.56;99019.59;4937832;28;104188;-62
2022/04/03 07:02:44;;;;;;;8.05;7.25;;;;;;;2.60;81.07;99026.34;4938677;28;105370;-63
2022/04/03 07:05:12;;;;;;;6.78;6.18;;;;;;;3.37;78.17;99023.47;4954267;28;102681;-63
2022/04/03 07:07:41;;;;;;;8.10;7.40;;;;;;;2.85;81.00;99025.44;4957044;28;102974;-64
2022/04/03 07:10:09;;;;;;;7.40;6.70;;;;;;;2.65;79.44;99027.03;4950028;28;103710;-61
2022/04/03 07:12:37;;;;;;;7.93;6.80;;;;;;;2.32;78.72;99018.63;4954463;28;103712;-66
2022/04/03 07:15:08;;;;;;;6.90;6.28;;;;;;;2.73;80.06;99025.88;4956376;28;102737;-64
2022/04/03 07:17:40;;;;;;;8.02;7.32;;;;;;;3.16;78.18;99019.94;4953644;28;103146;-64
2022/04/03 07:20:09;;;;;;;6.72;6.13;;;;;;;3.35;75.43;99022.69;4938328;28;104165;-66
2022/04/03 07:22:37;;;;;;;6.75;6.05;;;;;;;3.53;77.77;99028.97;4955074;28;103306;-66
2022/04/03 07:25:06;;;;;;;7.38;6.68;;;;;;;2.87;78.07;99030.59;4953556;28;102566;-63
2022/04/03 07:27:34;;;;;;;7.03;6.32;;;;;;;3.43;79.99;99024.09;4954674;28;102636;-64
2022/04/03 07:30:06;;;;;;;6.75;6.15;;;;;;;3.93;80.14;99027.31;4956376;28;104132;-61
2022/04/03 07:32:40;;;;;;;7.57;6.88;;;;;;;4.20;78.76;99033.22;4958283;28;103377;-63
2022/04/03 07:35:11;;;;;;;7.20;6.50;;;;;;;3.53;76.83;99040.28;4954878;28;102934;-65
2022/04/03 07:37:42;;;;;;;6.20;5.70;;;;;;;4.16;76.69;99042.09;4938926;28;103746;-65
2022/04/03 07:40:11;;;;;;;7.15;6.55;;;;;;;3.19;78.35;99048.53;4956336;28;103666;-65
2022/04/03 07:42:40;;;;;;;7.43;6.72;;;;;;;3.43;77.69;99054.59;4953957;28;103344;-66
2022/04/03 07:45:11;;;;;;;6.93;6.22;;;;;;;2.72;76.40;99065.91;4937041;28;103051;-66
2022/04/03 07:47:47;;;;;;;6.82;5.57;;;;;;;3.78;75.33;99061.94;4936941;28;104058;-65
2022/04/03 07:50:18;;;;;;;6.93;6.25;;;;;;;3.35;75.20;99067.94;4947148;28;103622;-66
2022/04/03 07:52:49;;;;;;;6.90;6.30;;;;;;;2.86;78.15;99068.03;4939006;28;103315;-66
2022/04/03 07:55:18;;;;;;;7.18;6.47;;;;;;;3.25;79.09;99071.81;4951403;28;102803;-66
2022/04/03 07:57:46;;;;;;;6.87;6.27;;;;;;;3.44;76.13;99079.81;4950677;28;103866;-66
2022/04/03 08:00:15;;;;;;;7.07;6.40;;;;;;;4.08;77.67;99071.16;4948035;28;103238;-69
2022/04/03 08:02:43;;;;;;;7.13;6.53;;;;;;;2.91;77.82;99074.81;4944070;28;103214;-66
2022/04/03 08:05:14;;;;;;;6.55;5.95;;;;;;;3.93;76.53;99078.78;4931979;28;102826;-63
2022/04/03 08:07:48;;;;;;;6.18;5.57;;;;;;;4.52;73.03;99077.19;4945955;28;104513;-63
2022/04/03 08:10:18;;;;;;;6.95;6.25;;;;;;;4.78;75.48;99076.06;4949767;28;103494;-63
2022/04/03 08:12:48;;;;;;;7.53;6.83;;;;;;;3.56;76.34;99084.59;4949256;28;104129;-63
2022/04/03 08:15:19;;;;;;;6.47;5.87;;;;;;;4.29;75.59;99079.91;4961848;28;102764;-63
2022/04/03 08:17:47;;;;;;;5.90;5.40;;;;;;;4.77;75.20;99082.25;4971755;28;103040;-63
2022/04/03 08:20:19;;;;;;;6.73;6.13;;;;;;;3.15;75.11;99091.31;4952255;28;104204;-63
2022/04/03 08:22:49;;;;;;;7.50;6.80;;;;;;;3.41;77.44;99090.38;4951722;28;103475;-63
2022/04/03 08:25:18;;;;;;;6.30;5.70;;;;;;;4.15;71.75;99087.47;4974857;28;103492;-63
2022/04/03 08:27:48;;;;;;;6.00;5.50;;;;;;;4.53;70.38;99072.81;4962943;28;102692;-63
2022/04/03 08:30:19;;;;;;;6.40;5.80;;;;;;;4.64;71.53;99081.91;4957323;28;104211;-63
2022/04/03 08:32:47;;;;;;;6.10;5.50;;;;;;;5.05;70.02;99082.72;4956637;28;103207;-63
2022/04/03 08:35:16;;;;;;;5.90;5.30;;;;;;;5.83;71.05;99090.53;4971139;28;102654;-63
2022/04/03 08:37:50;;;;;;;5.70;5.20;;;;;;;4.49;70.82;99089.56;4980954;28;103643;-63
2022/04/03 08:40:20;;;;;;;6.88;6.18;;;;;;;4.92;69.42;99089.41;4981752;28;104081;-63
2022/04/03 08:42:50;;;;;;;6.13;5.63;;;;;;;4.02;70.29;99099.31;4977685;28;103328;-63
2022/04/03 08:45:19;;;;;;;5.37;4.87;;;;;;;5.57;71.73;99090.88;4971311;28;102645;-59
2022/04/03 08:47:50;;;;;;;4.82;4.50;;;;;;;6.27;69.72;99093.66;4968084;28;102887;-63
2022/04/03 08:50:20;;;;;;;5.47;4.97;;;;;;;6.30;66.99;99093.53;4984644;28;103206;-62
2022/04/03 08:52:52;;;;;;;5.20;4.70;;;;;;;5.83;65.63;99093.16;4966010;28;105418;-63
2022/04/03 08:55:21;;;;;;;5.78;5.22;;;;;;;4.46;70.53;99103.59;4969281;28;102826;-63
2022/04/03 08:57:51;;;;;;;5.97;5.47;;;;;;;5.84;70.34;99097.44;4961052;28;104049;-63
2022/04/03 09:00:20;;;;;;;5.22;4.82;;;;;;;6.56;62.50;99090.47;4982419;28;103235;-63
2022/04/03 09:02:49;;;;;;;4.57;3.90;;;;;;;6.73;65.33;99089.63;4985708;28;103204;-62
2022/04/03 09:05:18;;;;;;;5.10;4.53;;;;;;;7.32;62.88;99092.63;4976886;28;102811;-63
2022/04/03 09:08:01;;;;;;;4.80;4.30;;;;;;;5.94;61.21;99090.03;4956356;28;102682;-62
2022/04/03 09:10:30;;;;;;;4.28;3.88;;;;;;;6.38;58.58;99094.00;4975398;28;103467;-62
2022/04/03 09:12:59;;;;;;;4.20;3.80;;;;;;;7.94;57.39;99085.75;4960064;28;103199;-61
2022/04/03 09:15:32;;;;;;;4.47;4.10;;;;;;;8.89;60.20;99082.88;4980046;28;102905;-61
2022/04/03 09:18:01;;;;;;;4.80;4.40;;;;;;;9.11;61.04;99083.28;4989434;28;103638;-58
2022/04/03 09:20:31;;;;;;;4.40;4.00;;;;;;;5.96;61.87;99094.28;4987227;28;103854;-59
2022/04/03 09:23:03;;;;;;;4.33;3.93;;;;;;;6.99;63.98;99094.38;4981169;28;103240;-62
2022/04/03 09:25:38;;;;;;;5.47;3.90;;;;;;;7.04;61.50;99092.38;4989933;28;102662;-70
2022/04/03 09:28:08;;;;;;;4.53;4.13;;;;;;;6.91;63.03;99092.16;4980926;28;102822;-70
2022/04/03 09:30:38;;;;;;;3.90;3.60;;;;;;;6.10;56.94;99091.84;4963008;28;103258;-70
2022/04/03 09:33:08;;;;;;;4.38;3.97;;;;;;;6.93;62.92;99095.53;4979792;28;103467;-70
2022/04/03 09:35:54;;;;;;;4.60;4.17;;;;;;;7.24;61.42;99104.47;4982035;28;102861;-70
2022/04/03 09:38:25;;;;;;;4.33;3.90;;;;;;;7.29;60.91;99095.44;4964223;28;102918;-70
2022/04/03 09:40:54;;;;;;;4.50;4.10;;;;;;;6.61;61.19;99098.97;4981704;28;103152;-70
2022/04/03 09:43:24;;;;;;;3.88;3.58;;;;;;;6.35;61.05;99097.63;4972729;28;103261;-70
2022/04/03 09:45:53;;;;;;;4.30;3.77;;;;;;;6.91;64.26;99101.78;4960278;28;102953;-65
2022/04/03 09:48:27;;;;;;;4.20;3.80;;;;;;;7.04;62.20;99102.88;4976652;28;103085;-64
2022/04/03 09:51:02;;;;;;;4.50;3.97;;;;;;;6.26;62.16;99098.06;4959793;28;104175;-64
2022/04/03 09:53:45;;;;;;;3.90;3.50;;;;;;;4.83;63.82;99100.28;4966285;28;103477;-64
2022/04/03 09:56:15;;;;;;;4.50;4.05;;;;;;;4.51;64.92;99106.03;4970202;28;103157;-64
2022/04/03 09:59:00;;;;;;;5.60;4.37;;;;;;;4.32;69.86;99105.94;4969301;28;103031;-65
2022/04/03 10:01:30;;;;;;;5.55;4.93;;;;;;;4.28;72.12;99119.19;4971120;28;103720;-68
2022/04/03 10:04:00;;;;;;;5.10;4.68;;;;;;;3.28;69.38;99117.88;4970751;28;103225;-68
2022/04/03 10:06:29;;;;;;;4.50;4.10;;;;;;;4.66;68.20;99115.84;4971361;28;102623;-68
2022/04/03 10:09:00;;;;;;;5.47;4.80;;;;;;;4.07;70.30;99120.91;4959263;28;104031;-68
2022/04/03 10:11:29;;;;;;;4.60;4.20;;;;;;;4.75;68.99;99112.00;4975522;28;104165;-68
2022/04/03 10:13:57;;;;;;;4.47;4.00;;;;;;;4.92;69.84;99110.38;4948867;28;103350;-68
2022/04/03 10:16:25;;;;;;;3.78;3.38;;;;;;;4.86;64.13;99108.00;4947945;28;102703;-68
2022/04/03 10:18:54;;;;;;;3.63;3.33;;;;;;;4.17;66.63;99110.94;4970991;28;103946;-68
2022/04/03 10:21:38;;;;;;;3.97;3.38;;;;;;;3.67;66.43;99111.16;4960988;28;105839;-64
2022/04/03 10:24:14;;;;;;;3.53;3.22;;;;;;;3.30;66.48;99116.91;4970851;28;103220;-64
2022/04/03 10:26:45;;;;;;;3.58;2.80;;;;;;;3.84;67.00;99107.91;4981807;28;104790;-65
2022/04/03 10:29:14;;;;;;;4.32;3.13;;;;;;;3.97;64.87;99109.97;4967893;28;102623;-65
2022/04/03 10:31:58;;;;;;;3.63;2.83;;;;;;;4.33;64.03;99106.78;4974965;28;104391;-65
2022/04/03 10:34:28;;;;;;;3.40;2.65;;;;;;;4.35;61.95;99105.78;4981300;28;102977;-65
2022/04/03 10:36:56;;;;;;;3.20;2.90;;;;;;;5.03;60.18;99110.75;4981361;28;102969;-66
2022/04/03 10:39:27;;;;;;;4.07;3.10;;;;;;;4.16;63.74;99104.00;4965840;28;104077;-66
2022/04/03 10:42:20;;;;;;;3.50;3.20;;;;;;;5.07;62.81;99104.47;4979675;28;103025;-66
2022/04/03 10:45:18;;;;;;;3.83;3.10;;;;;;;5.64;62.50;99092.31;4949737;28;104092;-66
2022/04/03 10:47:47;;;;;;;3.63;2.70;;;;;;;6.54;58.60;99088.84;4968098;28;102887;-66
2022/04/03 10:50:24;;;;;;;2.60;2.22;;;;;;;6.23;55.65;99082.47;4978996;28;103061;-66
2022/04/03 10:52:55;;;;;;;2.97;2.50;;;;;;;4.51;55.62;99090.34;4965726;28;103527;-67
2022/04/03 10:55:27;;;;;;;3.33;2.75;;;;;;;4.72;59.16;99089.41;4972378;28;103208;-67
2022/04/03 10:58:03;;;;;;;4.18;2.75;;;;;;;3.74;62.41;99102.16;4959848;28;102732;-66
2022/04/03 11:00:40;;;;;;;3.03;2.67;;;;;;;4.70;61.33;99091.25;4979447;28;102707;-67
2022/04/03 11:03:41;;;;;;;4.90;3.70;;;;;;;5.90;57.43;99094.56;4974701;28;104119;-66
2022/04/03 11:06:24;;;;;;;2.97;2.67;;;;;;;6.04;56.05;99092.16;4861515;28;104012;-66
2022/04/03 11:08:58;;;;;;;3.20;2.90;;;;;;;6.58;54.97;99087.75;4876825;28;102884;-64
2022/04/03 11:11:36;;;;;;;3.38;2.58;;;;;;;7.06;57.16;99090.50;4937232;28;103111;-64
2022/04/03 11:14:06;;;;;;;4.25;2.60;;;;;;;5.90;57.72;99086.69;4981035;28;103264;-64
2022/04/03 11:16:51;;;;;;;3.70;2.63;;;;;;;6.80;57.92;99080.47;4965093;28;104365;-64
2022/04/03 11:19:43;;;;;;;3.65;3.17;;;;;;;6.78;55.82;99082.34;4982921;28;102951;-64
2022/04/03 11:22:17;;;;;;;3.30;2.80;;;;;;;6.69;55.74;99077.56;4963431;28;103822;-62
2022/04/03 11:24:45;;;;;;;3.28;2.97;;;;;;;7.07;56.97;99084.34;4979649;28;104204;-62
2022/04/03 11:27:15;;;;;;;4.50;3.47;;;;;;;7.13;55.48;99084.00;4989771;28;103303;-63
2022/04/03 11:29:43;;;;;;;4.32;3.00;;;;;;;5.98;53.52;99081.13;4970523;28;103147;-62
2022/04/03 11:32:12;;;;;;;3.75;2.72;;;;;;;5.53;54.62;99084.09;4967042;28;102692;-66
2022/04/03 11:34:40;;;;;;;3.50;2.70;;;;;;;4.86;53.84;99086.19;4968769;28;103268;-66
2022/04/03 11:37:13;;;;;;;3.25;2.75;;;;;;;5.63;57.45;99082.72;4974201;28;103214;-65
2022/04/03 11:39:42;;;;;;;2.90;2.60;;;;;;;6.60;55.97;99078.00;4964699;28;102880;-65
2022/04/03 11:42:11;;;;;;;2.80;2.40;;;;;;;7.17;54.98;99077.66;4945462;28;102893;-66